Time;durP1;ratioP1;P1;durP2;ratioP2;P2;SDS_P1;SDS_P2;PMS_P1;PMS_P2;Temp;Humidity;BMP_temperature;BMP_pressure;BME280_temperature;BME280_humidity;BME280_pressure;Samples;Min_cycle;Max_cycle;Signal;HPM_P1;HPM_P2
2022/05/29 00:00:36;;;;;;;2.17;0.77;;;;;;;13.29;51.08;100219.47;5590548;31;33942;-66
2022/05/29 00:03:39;;;;;;;1.67;0.70;;;;;;;13.33;51.20;100226.87;5590438;31;34448;-66
2022/05/29 00:06:44;;;;;;;1.15;0.68;;;;;;;13.27;51.25;100214.31;5589989;31;34217;-66
2022/05/29 00:09:49;;;;;;;2.35;0.80;;;;;;;13.24;51.30;100208.53;5589978;31;34002;-66
2022/05/29 00:12:51;;;;;;;1.08;0.70;;;;;;;13.22;52.26;100213.22;5589977;31;34379;-66
2022/05/29 00:15:55;;;;;;;2.10;0.73;;;;;;;13.14;51.84;100208.03;5589934;31;34820;-65
2022/05/29 00:18:57;;;;;;;2.28;0.85;;;;;;;13.05;51.81;100210.78;5590031;31;34051;-65
2022/05/29 00:22:02;;;;;;;5.53;0.90;;;;;;;13.01;52.03;100201.50;5590047;31;34022;-65
2022/05/29 00:25:08;;;;;;;1.10;0.65;;;;;;;12.99;52.16;100206.19;5589240;31;33965;-66
2022/05/29 00:28:11;;;;;;;1.77;0.80;;;;;;;12.99;52.57;100200.03;5589643;31;33978;-65
2022/05/29 00:31:14;;;;;;;1.17;0.73;;;;;;;12.93;52.68;100195.44;5589519;31;33966;-66
2022/05/29 00:34:17;;;;;;;1.95;0.80;;;;;;;12.88;52.90;100197.84;5589847;31;33987;-66
2022/05/29 00:37:20;;;;;;;1.83;1.00;;;;;;;12.98;53.58;100191.22;5589877;31;34718;-65
2022/05/29 00:40:43;;;;;;;3.70;0.73;;;;;;;13.15;52.90;100188.38;5589707;31;34625;-65
2022/05/29 00:44:14;;;;;;;2.47;0.98;;;;;;;13.12;53.01;100194.09;5589168;31;34032;-66
2022/05/29 00:47:21;;;;;;;1.12;0.60;;;;;;;13.03;53.41;100188.81;5589675;31;34999;-65
2022/05/29 00:50:24;;;;;;;3.37;0.82;;;;;;;13.02;54.21;100187.16;5589649;31;33953;-65
2022/05/29 00:53:28;;;;;;;2.37;1.10;;;;;;;13.08;53.54;100167.78;5589698;31;34670;-65
2022/05/29 00:56:33;;;;;;;1.85;0.77;;;;;;;12.92;53.18;100169.88;5589683;31;34084;-66
2022/05/29 00:59:36;;;;;;;2.30;1.00;;;;;;;12.86;53.61;100166.13;5589537;31;33959;-65
2022/05/29 01:02:39;;;;;;;1.95;0.98;;;;;;;12.83;53.22;100165.66;5589926;31;33888;-66
2022/05/29 01:05:42;;;;;;;1.30;0.80;;;;;;;12.96;53.00;100171.97;5589560;31;33989;-65
2022/05/29 01:08:45;;;;;;;1.23;0.70;;;;;;;12.96;53.45;100165.81;5589637;31;34741;-65
2022/05/29 01:12:05;;;;;;;1.58;0.70;;;;;;;12.83;53.52;100158.47;5589469;31;33951;-65
2022/05/29 01:15:23;;;;;;;1.95;0.73;;;;;;;12.74;54.31;100153.47;5589413;31;34030;-66
2022/05/29 01:19:05;;;;;;;2.45;0.80;;;;;;;12.75;54.68;100163.09;5589350;31;34244;-66
2022/05/29 01:22:08;;;;;;;2.22;1.27;;;;;;;12.61;55.14;100157.62;5580838;31;33909;-66
2022/05/29 01:25:29;;;;;;;4.03;1.30;;;;;;;12.65;57.41;100166.06;5589283;31;34085;-66
2022/05/29 01:28:50;;;;;;;2.55;1.30;;;;;;;12.81;58.36;100159.69;5589067;31;34633;-66
2022/05/29 01:32:03;;;;;;;3.92;1.30;;;;;;;12.75;59.05;100157.78;5589064;31;34324;-65
2022/05/29 01:35:15;;;;;;;3.33;1.20;;;;;;;12.73;58.68;100157.16;5588398;31;33866;-66
2022/05/29 01:38:34;;;;;;;5.82;1.00;;;;;;;12.71;59.65;100156.50;5589120;31;33451;-66
2022/05/29 01:41:45;;;;;;;3.25;1.23;;;;;;;12.58;59.73;100158.00;5589413;31;33995;-65
2022/05/29 01:44:58;;;;;;;3.87;1.40;;;;;;;12.53;60.80;100157.75;5589032;31;35262;-66
2022/05/29 01:48:17;;;;;;;5.30;1.42;;;;;;;12.51;61.14;100165.06;5588930;31;33871;-65
2022/05/29 01:51:23;;;;;;;4.30;1.40;;;;;;;12.69;61.07;100161.16;5590253;31;34158;-66
2022/05/29 01:54:39;;;;;;;4.12;1.17;;;;;;;12.63;61.02;100162.78;5595434;31;34469;-66
2022/05/29 01:57:46;;;;;;;2.45;1.42;;;;;;;12.54;61.83;100170.00;5595785;31;34045;-66
2022/05/29 02:00:52;;;;;;;2.65;1.35;;;;;;;12.49;61.89;100164.41;5594523;31;34580;-65
2022/05/29 02:03:58;;;;;;;2.47;1.30;;;;;;;12.58;62.45;100163.31;5595210;31;35152;-66
2022/05/29 02:10:41;;;;;;;1.23;0.90;;;;;;;12.69;60.38;100169.16;5594581;31;34109;-65
2022/05/29 02:13:54;;;;;;;3.55;1.10;;;;;;;12.68;59.04;100170.19;5581097;31;33323;-65
2022/05/29 02:17:14;;;;;;;3.70;1.33;;;;;;;12.68;59.55;100162.22;5594936;31;35263;-65
2022/05/29 02:20:22;;;;;;;3.25;1.02;;;;;;;12.67;61.51;100156.06;5594999;31;34046;-66
2022/05/29 02:23:40;;;;;;;1.80;0.88;;;;;;;12.57;63.09;100145.72;5594823;31;34041;-66
2022/05/29 02:26:52;;;;;;;2.10;0.90;;;;;;;12.44;61.63;100150.03;5594813;31;34447;-66
2022/05/29 02:29:57;;;;;;;2.45;1.10;;;;;;;12.62;61.55;100147.81;5590726;31;138474;-66
2022/05/29 02:33:20;;;;;;;1.33;0.80;;;;;;;12.47;62.02;100147.84;5595053;31;34635;-65
2022/05/29 02:36:35;;;;;;;3.05;1.00;;;;;;;12.44;62.47;100150.84;5594813;31;33993;-66
2022/05/29 02:39:42;;;;;;;1.37;0.70;;;;;;;12.37;63.53;100139.31;5594566;31;34126;-65
2022/05/29 02:43:04;;;;;;;2.25;0.60;;;;;;;12.41;63.67;100134.44;5594903;31;33916;-66
2022/05/29 02:46:17;;;;;;;3.87;1.10;;;;;;;12.45;66.43;100139.19;5594482;31;34714;-66
2022/05/29 02:49:25;;;;;;;1.87;0.80;;;;;;;12.39;66.29;100133.81;5594363;31;33981;-66
2022/05/29 02:52:28;;;;;;;1.95;1.00;;;;;;;12.24;67.86;100136.47;5594719;31;33973;-65
2022/05/29 02:55:31;;;;;;;2.53;1.00;;;;;;;12.38;67.68;100138.31;5594205;31;34166;-66
2022/05/29 02:58:35;;;;;;;2.17;0.88;;;;;;;12.41;68.12;100137.91;5594226;31;34574;-66
2022/05/29 03:01:57;;;;;;;1.73;0.90;;;;;;;12.37;68.49;100134.00;5594156;31;34755;-66
2022/05/29 03:05:32;;;;;;;1.60;1.00;;;;;;;12.50;67.89;100134.16;5590394;31;33907;-66
2022/05/29 03:09:19;;;;;;;2.58;1.10;;;;;;;12.41;67.86;100139.75;5579236;31;33907;-66
2022/05/29 03:12:39;;;;;;;1.25;0.85;;;;;;;12.42;68.03;100139.56;5577805;31;34001;-66
2022/05/29 03:15:54;;;;;;;2.22;1.00;;;;;;;12.55;68.72;100117.63;5589784;31;34130;-66
2022/05/29 03:19:03;;;;;;;2.85;1.10;;;;;;;12.37;68.89;100115.37;5590798;31;34721;-65
2022/05/29 03:22:31;;;;;;;1.70;0.95;;;;;;;12.40;68.43;100120.31;5590529;31;33954;-65
2022/05/29 03:25:41;;;;;;;2.00;0.93;;;;;;;12.37;68.57;100117.19;5590397;31;33890;-66
2022/05/29 03:28:50;;;;;;;5.55;1.10;;;;;;;12.31;68.89;100120.59;5590204;31;34198;-65
2022/05/29 03:31:52;;;;;;;2.03;1.02;;;;;;;12.27;68.26;100112.16;5590277;31;34285;-66
2022/05/29 03:34:55;;;;;;;2.97;0.93;;;;;;;12.33;68.23;100103.44;5590364;31;33963;-66
2022/05/29 03:38:00;;;;;;;2.30;1.10;;;;;;;12.56;67.73;100103.31;5590368;31;34062;-66
2022/05/29 03:41:12;;;;;;;1.50;0.90;;;;;;;12.48;68.25;100108.75;5590565;31;33902;-65
2022/05/29 03:44:18;;;;;;;4.50;1.10;;;;;;;12.35;69.24;100109.38;5590247;31;34570;-65
2022/05/29 03:47:21;;;;;;;2.28;1.12;;;;;;;12.29;70.13;100106.66;5590307;31;33931;-65
2022/05/29 03:50:25;;;;;;;6.20;1.30;;;;;;;12.33;69.60;100110.59;5590199;31;34560;-65
2022/05/29 03:53:28;;;;;;;2.75;1.00;;;;;;;12.29;69.67;100102.19;5590079;31;34182;-66
2022/05/29 03:56:31;;;;;;;2.97;1.02;;;;;;;12.53;69.10;100104.53;5590223;31;35212;-66
2022/05/29 03:59:34;;;;;;;1.33;1.00;;;;;;;12.47;68.66;100115.06;5589971;31;34889;-66
2022/05/29 04:02:36;;;;;;;1.77;1.00;;;;;;;12.47;68.27;100107.09;5590069;31;33947;-65
2022/05/29 04:05:39;;;;;;;1.60;0.88;;;;;;;12.35;68.00;100111.22;5590004;31;33931;-65
2022/05/29 04:12:04;;;;;;;2.25;1.10;;;;;;;12.27;67.81;100114.81;5590107;31;35141;-65
2022/05/29 04:15:06;;;;;;;3.65;1.45;;;;;;;12.33;68.05;100111.44;5589681;31;33985;-66
2022/05/29 04:18:09;;;;;;;2.25;1.12;;;;;;;12.43;67.59;100108.47;5589929;31;33903;-66
2022/05/29 04:21:12;;;;;;;3.50;1.30;;;;;;;12.44;68.10;100116.25;5589870;31;34656;-66
2022/05/29 04:24:19;;;;;;;2.03;0.90;;;;;;;12.40;67.75;100103.50;5589826;31;34100;-66
2022/05/29 04:27:21;;;;;;;3.87;1.10;;;;;;;12.50;67.16;100104.87;5589808;31;34039;-66
2022/05/29 04:30:24;;;;;;;2.42;1.00;;;;;;;12.57;65.88;100110.28;5589674;31;34157;-65
2022/05/29 04:33:27;;;;;;;2.47;1.08;;;;;;;12.56;65.70;100121.94;5588893;31;34026;-67
2022/05/29 04:36:30;;;;;;;3.87;1.30;;;;;;;12.72;64.50;100128.87;5589047;31;34042;-66
2022/05/29 04:39:35;;;;;;;2.75;1.40;;;;;;;12.83;65.29;100139.03;5589798;31;35245;-67
2022/05/29 04:42:38;;;;;;;2.00;1.23;;;;;;;12.81;65.05;100130.41;5588916;31;34004;-66
2022/05/29 04:45:43;;;;;;;2.75;1.23;;;;;;;12.86;63.92;100128.00;5589606;31;34689;-65
2022/05/29 04:48:46;;;;;;;2.72;1.40;;;;;;;12.61;61.40;100135.50;5588934;31;32871;-66
2022/05/29 04:51:48;;;;;;;2.75;1.10;;;;;;;12.68;61.63;100133.75;5589766;31;33943;-66
2022/05/29 04:54:51;;;;;;;2.20;1.10;;;;;;;12.55;60.93;100142.41;5589618;31;33911;-66
2022/05/29 04:57:54;;;;;;;2.28;1.30;;;;;;;12.60;60.29;100147.97;5589601;31;33956;-65
2022/05/29 05:01:03;;;;;;;2.53;1.10;;;;;;;12.84;59.96;100138.00;5589479;31;34781;-66
2022/05/29 05:04:06;;;;;;;3.72;1.02;;;;;;;13.10;59.31;100143.62;5589573;31;34065;-66
2022/05/29 05:07:09;;;;;;;3.12;1.33;;;;;;;13.28;60.25;100141.38;5589349;31;34523;-66
2022/05/29 05:10:15;;;;;;;2.67;1.10;;;;;;;13.45;58.03;100137.44;5589359;31;34114;-66
2022/05/29 05:13:18;;;;;;;3.30;1.20;;;;;;;13.63;57.36;100136.97;5589450;31;34012;-65
2022/05/29 05:16:20;;;;;;;2.65;1.08;;;;;;;13.81;56.15;100126.62;5589480;31;33896;-66
2022/05/29 05:19:23;;;;;;;2.00;1.00;;;;;;;13.81;56.50;100125.81;5589419;31;33891;-66
2022/05/29 05:22:26;;;;;;;3.35;1.25;;;;;;;13.88;53.97;100124.00;5589207;31;33991;-66
2022/05/29 05:25:28;;;;;;;1.67;1.20;;;;;;;14.01;54.68;100113.41;5588451;31;34030;-66
2022/05/29 05:28:32;;;;;;;2.67;1.10;;;;;;;14.06;56.33;100126.16;5589154;31;34712;-66
2022/05/29 05:31:34;;;;;;;1.87;0.98;;;;;;;14.21;53.95;100119.69;5588835;31;34186;-66
2022/05/29 05:34:37;;;;;;;4.65;1.10;;;;;;;14.31;55.69;100108.66;5589212;31;34662;-66
2022/05/29 05:37:41;;;;;;;3.15;1.08;;;;;;;14.29;56.99;100108.03;5589165;31;34289;-66
2022/05/29 05:40:43;;;;;;;2.08;1.10;;;;;;;14.29;57.51;100111.50;5589142;31;33970;-66
2022/05/29 05:43:46;;;;;;;2.78;1.20;;;;;;;14.33;57.23;100115.44;5587980;31;34064;-66
2022/05/29 05:46:53;;;;;;;2.05;1.00;;;;;;;14.50;57.04;100104.44;5587990;31;34551;-66
2022/05/29 05:50:04;;;;;;;2.55;1.05;;;;;;;14.35;56.16;100117.91;5588888;31;34043;-66
2022/05/29 05:53:07;;;;;;;2.67;1.00;;;;;;;14.50;56.12;100107.94;5588022;31;32640;-66
2022/05/29 05:56:15;;;;;;;4.35;0.90;;;;;;;14.63;55.83;100107.97;5588862;31;33970;-65
2022/05/29 05:59:18;;;;;;;2.65;1.02;;;;;;;14.67;54.94;100101.22;5588838;31;34015;-66
2022/05/29 06:02:23;;;;;;;4.57;1.02;;;;;;;14.47;56.09;100099.53;5588740;31;34615;-66
2022/05/29 06:05:26;;;;;;;1.85;0.90;;;;;;;14.19;55.42;100097.72;5588656;31;33894;-66
2022/05/29 06:08:30;;;;;;;1.23;0.88;;;;;;;14.60;54.06;100107.56;5588539;31;33965;-66
2022/05/29 06:11:33;;;;;;;2.37;1.10;;;;;;;14.87;53.12;100103.94;5588431;31;34320;-66
2022/05/29 06:14:36;;;;;;;2.90;0.93;;;;;;;14.80;51.02;100103.12;5588377;31;34027;-66
2022/05/29 06:17:39;;;;;;;2.62;0.95;;;;;;;15.30;50.44;100106.28;5588442;31;33950;-66
2022/05/29 06:20:42;;;;;;;1.83;1.08;;;;;;;15.46;49.87;100100.50;5588213;31;34640;-66
2022/05/29 06:23:45;;;;;;;1.23;0.70;;;;;;;15.83;47.76;100099.09;5588289;31;34721;-66
2022/05/29 06:26:47;;;;;;;1.65;0.90;;;;;;;15.29;49.08;100104.63;5587160;31;33193;-67
2022/05/29 06:29:50;;;;;;;2.05;0.90;;;;;;;15.44;48.19;100099.91;5588027;31;33885;-66
2022/05/29 06:32:52;;;;;;;3.28;0.80;;;;;;;15.43;48.49;100111.63;5588032;31;34134;-66
2022/05/29 06:36:25;;;;;;;1.40;0.70;;;;;;;15.63;45.75;100107.12;5588122;31;33925;-66
2022/05/29 06:39:28;;;;;;;5.43;1.05;;;;;;;15.75;44.22;100108.13;5590717;31;33887;-67
2022/05/29 06:42:31;;;;;;;2.50;0.70;;;;;;;16.32;43.96;100112.72;5590849;31;34643;-66
2022/05/29 06:45:34;;;;;;;2.60;0.80;;;;;;;16.74;41.38;100108.66;5590771;31;34678;-66
2022/05/29 06:48:38;;;;;;;2.55;0.75;;;;;;;16.83;41.28;100120.78;5590807;31;34088;-67
2022/05/29 06:51:40;;;;;;;2.15;0.82;;;;;;;17.03;42.71;100119.84;5590590;31;34099;-67
2022/05/29 06:54:44;;;;;;;3.08;1.00;;;;;;;17.19;41.86;100111.25;5590712;31;34021;-67
2022/05/29 06:57:48;;;;;;;1.27;0.82;;;;;;;17.11;43.87;100103.47;5590599;31;33972;-67
2022/05/29 07:07:38;;;;;;;1.70;0.68;;;;;;;17.06;40.66;100095.28;5590523;31;34299;-67
2022/05/29 07:10:40;;;;;;;2.42;0.73;;;;;;;17.52;39.38;100090.38;5590421;31;34061;-66
2022/05/29 07:13:43;;;;;;;1.77;0.52;;;;;;;18.28;37.98;100102.63;5576824;31;33955;-67
2022/05/29 07:16:46;;;;;;;0.80;0.50;;;;;;;18.43;37.98;100095.03;5590511;31;33935;-67
2022/05/29 07:19:49;;;;;;;3.17;0.60;;;;;;;19.17;35.60;100094.63;5589580;31;34115;-66
2022/05/29 07:22:52;;;;;;;0.93;0.50;;;;;;;19.22;34.66;100091.25;5590392;31;34708;-67
2022/05/29 07:25:55;;;;;;;1.58;0.70;;;;;;;18.81;36.32;100089.38;5590345;31;34787;-67
2022/05/29 07:28:57;;;;;;;1.92;0.75;;;;;;;18.71;36.37;100089.94;5590192;31;34664;-68
2022/05/29 07:32:00;;;;;;;2.08;0.52;;;;;;;19.00;34.97;100088.28;5590244;31;35206;-66
2022/05/29 07:35:03;;;;;;;1.00;0.50;;;;;;;18.66;35.52;100082.56;5590480;31;34844;-66
2022/05/29 07:38:07;;;;;;;1.40;0.55;;;;;;;18.66;35.89;100090.59;5590248;31;33937;-66
2022/05/29 07:44:31;;;;;;;2.20;0.73;;;;;;;18.18;36.55;100087.06;5590231;31;33978;-67
2022/05/29 07:47:43;;;;;;;1.00;0.50;;;;;;;18.43;36.17;100082.41;5589364;31;33941;-66
2022/05/29 07:50:46;;;;;;;5.80;0.60;;;;;;;18.30;36.79;100090.63;5589303;31;35319;-66
2022/05/29 07:53:49;;;;;;;1.58;0.50;;;;;;;18.13;36.92;100082.34;5590155;31;34925;-67
2022/05/29 07:56:52;;;;;;;1.48;0.57;;;;;;;18.48;37.26;100087.09;5589208;31;33187;-67
2022/05/29 07:59:55;;;;;;;0.98;0.50;;;;;;;18.95;36.95;100070.16;5589288;31;34677;-67
2022/05/29 08:02:59;;;;;;;1.90;0.65;;;;;;;18.83;35.94;100071.16;5590119;31;33911;-67
2022/05/29 08:06:03;;;;;;;2.17;0.70;;;;;;;19.03;35.92;100071.66;5590035;31;34155;-67
2022/05/29 08:09:05;;;;;;;1.45;0.70;;;;;;;18.66;37.68;100065.59;5589962;31;35144;-67
2022/05/29 08:12:08;;;;;;;1.85;0.60;;;;;;;18.56;37.42;100066.16;5589829;31;34601;-67
2022/05/29 08:15:12;;;;;;;1.83;0.77;;;;;;;18.99;37.21;100057.87;5589810;31;33908;-67
2022/05/29 08:18:15;;;;;;;1.12;0.57;;;;;;;19.52;35.64;100057.84;5589842;31;34576;-67
2022/05/29 08:21:17;;;;;;;5.28;0.70;;;;;;;19.71;35.09;100061.25;5589699;31;34278;-67
2022/05/29 08:31:18;;;;;;;2.12;0.60;;;;;;;19.38;34.45;100052.91;5589469;31;34091;-66
2022/05/29 08:34:21;;;;;;;1.42;0.50;;;;;;;19.61;34.22;100055.62;5589727;31;34667;-67
2022/05/29 08:37:24;;;;;;;1.90;0.55;;;;;;;19.59;33.44;100052.38;5589515;31;34131;-67
2022/05/29 08:40:28;;;;;;;1.00;0.50;;;;;;;19.91;33.20;100050.09;5588905;31;33205;-66
2022/05/29 08:43:35;;;;;;;1.85;0.65;;;;;;;18.95;33.83;100045.94;5589555;31;33971;-66
2022/05/29 08:46:52;;;;;;;1.42;0.90;;;;;;;18.94;34.63;100048.84;5588403;31;33450;-67
2022/05/29 08:49:55;;;;;;;1.90;0.88;;;;;;;19.30;33.12;100039.81;5588943;31;34061;-67
2022/05/29 08:53:05;;;;;;;1.58;0.60;;;;;;;19.20;34.16;100043.06;5589650;31;33989;-67
2022/05/29 08:56:22;;;;;;;1.20;0.68;;;;;;;19.68;34.67;100044.75;5589526;31;34085;-66
2022/05/29 08:59:48;;;;;;;3.15;0.80;;;;;;;19.34;35.05;100036.41;5589622;31;33901;-67
2022/05/29 09:03:24;;;;;;;1.00;0.50;;;;;;;19.85;33.65;100034.88;5589067;31;33928;-67
2022/05/29 09:06:39;;;;;;;1.05;0.60;;;;;;;19.76;34.29;100033.63;5589481;31;33907;-68
2022/05/29 09:09:50;;;;;;;3.22;1.00;;;;;;;19.77;35.17;100030.69;5589144;31;34828;-67
2022/05/29 09:12:54;;;;;;;1.20;0.57;;;;;;;19.83;34.86;100032.47;5589471;31;33949;-67
2022/05/29 09:16:02;;;;;;;1.25;0.60;;;;;;;19.90;34.41;100035.81;5589398;31;34697;-67
2022/05/29 09:19:14;;;;;;;2.22;0.73;;;;;;;20.05;34.41;100035.31;5589233;31;34083;-67
2022/05/29 09:22:29;;;;;;;1.90;0.60;;;;;;;19.95;34.01;100025.16;5589159;31;34033;-67
2022/05/29 09:25:35;;;;;;;1.27;0.62;;;;;;;19.76;33.36;100030.94;5589437;31;33898;-67
2022/05/29 09:28:40;;;;;;;2.30;0.60;;;;;;;19.53;33.76;100029.09;5589376;31;34074;-67
2022/05/29 09:31:43;;;;;;;1.62;0.60;;;;;;;20.03;33.58;100028.56;5588041;31;33390;-68
2022/05/29 09:35:08;;;;;;;1.42;0.60;;;;;;;20.34;33.56;100033.50;5588993;31;33937;-67
2022/05/29 09:38:24;;;;;;;2.20;0.70;;;;;;;20.44;32.08;100022.12;5589089;31;34041;-67
2022/05/29 09:41:27;;;;;;;2.97;0.60;;;;;;;19.73;32.99;100020.66;5588617;31;34211;-67
2022/05/29 09:44:30;;;;;;;0.93;0.52;;;;;;;20.54;33.36;100023.13;5587973;31;33422;-67
2022/05/29 09:50:59;;;;;;;1.23;0.62;;;;;;;20.15;31.46;100014.00;5588187;31;33351;-67
2022/05/29 09:54:05;;;;;;;2.35;0.55;;;;;;;20.53;32.38;100016.09;5588784;31;33968;-66
2022/05/29 09:57:19;;;;;;;1.50;0.68;;;;;;;21.07;31.83;100019.19;5588685;31;34628;-68
2022/05/29 10:00:30;;;;;;;2.85;0.75;;;;;;;20.05;31.17;100008.41;5588661;31;33884;-67
2022/05/29 10:03:57;;;;;;;2.15;0.70;;;;;;;20.46;32.18;100007.34;5588916;31;34298;-67
2022/05/29 10:07:12;;;;;;;2.05;0.65;;;;;;;20.14;32.79;99998.88;5587970;31;32547;-67
2022/05/29 10:10:24;;;;;;;3.20;0.77;;;;;;;20.06;32.99;99996.56;5588247;31;34050;-68
2022/05/29 10:13:36;;;;;;;1.40;0.50;;;;;;;21.42;31.13;99989.28;5589716;31;34016;-68
2022/05/29 10:16:39;;;;;;;1.05;0.60;;;;;;;21.47;29.17;99992.06;5590175;31;34325;-68
2022/05/29 10:19:45;;;;;;;1.40;0.70;;;;;;;21.78;29.33;99991.44;5590693;31;34452;-67
2022/05/29 10:22:48;;;;;;;1.00;0.50;;;;;;;21.87;29.27;99989.09;5589851;31;33721;-68
2022/05/29 10:25:57;;;;;;;3.08;0.40;;;;;;;20.97;29.42;99992.87;5590945;31;34265;-67
2022/05/29 10:29:16;;;;;;;3.10;0.80;;;;;;;21.04;31.97;99985.44;5590748;31;34597;-68
2022/05/29 10:32:26;;;;;;;2.60;1.30;;;;;;;21.21;30.27;99983.59;5590688;31;34582;-67
2022/05/29 10:35:33;;;;;;;2.72;0.68;;;;;;;21.42;31.72;99983.88;5590820;31;34688;-68
2022/05/29 10:38:36;;;;;;;4.28;0.50;;;;;;;20.75;31.91;99989.28;5589929;31;32169;-67
2022/05/29 10:41:43;;;;;;;1.95;0.88;;;;;;;21.44;30.26;99971.78;5590810;31;34118;-68
2022/05/29 10:44:46;;;;;;;2.47;0.88;;;;;;;21.94;30.74;99982.47;5590638;31;34151;-68
2022/05/29 10:48:18;;;;;;;1.70;0.70;;;;;;;22.56;29.91;99986.66;5589934;31;34616;-68
2022/05/29 10:51:30;;;;;;;6.05;0.62;;;;;;;21.83;31.13;99978.00;5589755;31;34534;-66
2022/05/29 10:54:42;;;;;;;1.77;0.70;;;;;;;21.08;31.12;99974.97;5590509;31;34009;-66
2022/05/29 10:57:56;;;;;;;2.30;0.65;;;;;;;19.52;33.32;99970.94;5590596;31;34286;-68
2022/05/29 11:03:17;;;;;;;1.27;0.60;;;;;;;19.77;33.06;99978.75;5590579;31;34723;-67
2022/05/29 11:04:56;;;;;;;1.83;0.57;;;;;;;20.27;34.34;99973.56;5590016;31;33836;-67
2022/05/29 11:08:29;;;;;;;2.35;0.70;;;;;;;20.06;33.02;99969.66;5590424;31;35308;-68
2022/05/29 11:11:50;;;;;;;3.37;0.70;;;;;;;19.02;32.80;99968.72;5590519;31;34248;-67
2022/05/29 11:15:21;;;;;;;5.57;1.00;;;;;;;19.59;33.22;99971.63;5589788;31;32455;-68
2022/05/29 11:18:46;;;;;;;1.90;0.68;;;;;;;19.90;32.80;99970.37;5590200;31;34271;-67
2022/05/29 11:22:10;;;;;;;1.67;0.65;;;;;;;20.16;32.78;99964.47;5589072;31;34593;-65
2022/05/29 11:25:38;;;;;;;3.67;0.77;;;;;;;19.77;31.99;99970.66;5587707;31;32428;-68
2022/05/29 11:28:53;;;;;;;1.90;0.70;;;;;;;19.65;32.93;99965.31;5590534;31;33920;-67
2022/05/29 11:32:41;;;;;;;1.00;0.60;;;;;;;20.36;31.78;99961.38;5589427;31;33320;-66
2022/05/29 11:36:00;;;;;;;2.10;0.82;;;;;;;21.12;30.05;99949.16;5589297;31;34272;-69
2022/05/29 11:39:21;;;;;;;1.40;0.60;;;;;;;21.22;30.61;99946.63;5589547;31;32555;-68
2022/05/29 11:42:29;;;;;;;2.10;0.55;;;;;;;21.42;29.57;99948.81;5589234;31;33321;-66
2022/05/29 11:52:57;;;;;;;1.12;0.50;;;;;;;21.58;29.49;99937.16;5589944;31;34795;-68
2022/05/29 11:56:06;;;;;;;1.67;0.62;;;;;;;21.85;29.62;99934.50;5576521;31;33421;-69
2022/05/29 11:59:35;;;;;;;1.27;0.80;;;;;;;20.91;30.92;99922.94;5589964;31;33982;-68
2022/05/29 12:02:59;;;;;;;1.48;0.65;;;;;;;21.54;30.15;99938.72;5589992;31;33919;-68
2022/05/29 12:06:06;;;;;;;1.55;0.50;;;;;;;22.18;29.59;99934.38;5589745;31;34685;-67
2022/05/29 12:09:22;;;;;;;1.83;0.50;;;;;;;21.59;29.50;99925.31;5589023;31;32469;-68
2022/05/29 12:12:32;;;;;;;1.17;0.68;;;;;;;20.33;31.90;99930.31;5590063;31;34107;-67
2022/05/29 12:15:36;;;;;;;2.72;0.50;;;;;;;20.82;31.19;99923.34;5589167;31;33949;-67
2022/05/29 12:18:52;;;;;;;2.10;0.70;;;;;;;20.52;31.33;99920.16;5589258;31;33209;-68
2022/05/29 12:22:00;;;;;;;1.58;0.70;;;;;;;20.42;32.35;99921.88;5589952;31;33909;-67
2022/05/29 12:25:20;;;;;;;1.48;0.62;;;;;;;20.41;31.78;99921.03;5590055;31;34176;-67
2022/05/29 12:28:52;;;;;;;1.90;0.80;;;;;;;20.37;32.34;99915.31;5575905;31;33681;-67
2022/05/29 12:32:03;;;;;;;2.97;0.77;;;;;;;19.58;33.73;99915.34;5588345;31;32545;-67
2022/05/29 12:35:11;;;;;;;1.45;0.70;;;;;;;19.76;33.13;99915.19;5588585;31;32760;-64
2022/05/29 12:38:42;;;;;;;1.08;0.60;;;;;;;20.35;32.22;99922.00;5588883;31;32365;-67
2022/05/29 12:42:17;;;;;;;1.02;0.70;;;;;;;20.31;32.32;99916.28;5589323;31;33935;-66
2022/05/29 12:45:47;;;;;;;2.60;0.80;;;;;;;19.47;33.39;99914.31;5588409;31;32471;-67
2022/05/29 12:49:21;;;;;;;1.90;0.70;;;;;;;20.01;33.08;99904.09;5588612;31;32923;-65
2022/05/29 12:53:08;;;;;;;2.90;0.80;;;;;;;19.78;33.92;99910.41;5588930;31;32096;-67
2022/05/29 12:56:56;;;;;;;2.85;0.77;;;;;;;20.56;33.09;99915.09;5589600;31;35289;-67
2022/05/29 13:00:20;;;;;;;1.50;0.60;;;;;;;20.15;32.61;99914.34;5588402;31;32997;-67
2022/05/29 13:03:44;;;;;;;1.40;0.68;;;;;;;19.04;34.58;99907.44;5576095;31;33178;-66
2022/05/29 13:07:11;;;;;;;1.75;0.70;;;;;;;19.15;34.72;99913.88;5589393;31;33962;-67
2022/05/29 13:10:51;;;;;;;1.02;0.60;;;;;;;19.09;36.64;99910.25;5589680;31;34602;-65
2022/05/29 13:13:59;;;;;;;1.45;0.70;;;;;;;19.28;36.67;99905.56;5556903;31;33964;-67
2022/05/29 13:17:09;;;;;;;4.37;0.70;;;;;;;19.06;35.48;99902.66;5589272;31;34763;-67
2022/05/29 13:20:17;;;;;;;3.72;1.25;;;;;;;19.21;34.36;99912.13;5589627;31;34054;-67
2022/05/29 13:23:32;;;;;;;1.30;0.50;;;;;;;19.06;34.47;99910.72;5588395;31;34193;-67
2022/05/29 13:26:36;;;;;;;2.25;0.70;;;;;;;19.02;35.26;99917.63;5588500;31;34309;-67
2022/05/29 13:29:46;;;;;;;0.93;0.50;;;;;;;19.14;35.33;99906.84;5589143;31;35212;-67
2022/05/29 13:32:48;;;;;;;1.12;0.57;;;;;;;19.39;34.48;99912.81;5587996;31;32963;-68
2022/05/29 13:35:51;;;;;;;3.37;0.60;;;;;;;18.67;34.66;99912.22;5575408;31;32769;-67
2022/05/29 13:38:55;;;;;;;2.30;0.60;;;;;;;18.74;36.43;99911.28;5589028;31;35088;-68
2022/05/29 13:42:02;;;;;;;1.17;0.70;;;;;;;18.79;35.72;99908.72;5588717;31;33897;-67
2022/05/29 13:45:23;;;;;;;2.35;0.60;;;;;;;19.02;36.06;99898.81;5589041;31;33916;-67
2022/05/29 13:48:30;;;;;;;1.60;0.90;;;;;;;18.57;36.22;99893.16;5587440;31;33529;-67
2022/05/29 13:51:42;;;;;;;3.10;0.82;;;;;;;18.55;35.42;99891.75;5588190;31;33977;-67
2022/05/29 13:55:01;;;;;;;0.80;0.70;;;;;;;18.07;35.60;99879.22;5589250;31;34589;-68
2022/05/29 14:04:55;;;;;;;1.73;0.73;;;;;;;18.48;35.24;99874.91;5587397;31;32658;-65
2022/05/29 14:08:17;;;;;;;5.28;0.60;;;;;;;18.68;34.97;99862.00;5588314;31;35245;-66
2022/05/29 14:11:21;;;;;;;1.67;0.60;;;;;;;18.75;35.07;99864.56;5587478;31;32833;-66
2022/05/29 14:14:29;;;;;;;3.28;0.80;;;;;;;18.41;34.78;99858.06;5587896;31;32347;-66
2022/05/29 14:17:41;;;;;;;2.87;0.55;;;;;;;18.10;35.61;99856.50;5587738;31;32441;-67
2022/05/29 14:20:49;;;;;;;1.00;0.70;;;;;;;18.18;35.70;99864.22;5587449;31;32635;-67
2022/05/29 14:24:15;;;;;;;2.45;0.80;;;;;;;18.14;35.93;99858.50;5588336;31;34693;-67
2022/05/29 14:28:03;;;;;;;0.85;0.55;;;;;;;17.85;36.53;99848.59;5574511;31;32300;-68
2022/05/29 14:31:11;;;;;;;2.08;0.60;;;;;;;17.71;38.80;99855.19;5587923;31;34096;-68
2022/05/29 14:34:38;;;;;;;1.42;0.62;;;;;;;17.45;37.58;99850.94;5574571;31;32672;-67
2022/05/29 14:37:50;;;;;;;0.68;0.43;;;;;;;17.20;38.51;99844.84;5587952;31;34888;-67
2022/05/29 14:40:59;;;;;;;1.30;0.50;;;;;;;16.94;38.69;99860.16;5587880;31;34764;-68
2022/05/29 14:44:13;;;;;;;;;;;;;;;16.99;39.19;99856.84;5587259;31;33124;-67
2022/05/29 14:47:24;;;;;;;1.30;0.70;;;;;;;17.02;39.58;99856.37;5587350;31;35438;-67
2022/05/29 14:50:35;;;;;;;1.65;0.80;;;;;;;17.00;38.79;99863.00;5587758;31;33945;-67
2022/05/29 14:53:47;;;;;;;1.33;0.65;;;;;;;16.97;39.87;99850.88;5586787;31;33585;-67
2022/05/29 14:57:01;;;;;;;1.35;0.70;;;;;;;16.90;39.77;99856.28;5587619;31;34383;-67
2022/05/29 15:00:39;;;;;;;0.82;0.60;;;;;;;17.10;40.53;99852.56;5589451;31;33557;-67
2022/05/29 15:03:47;;;;;;;1.83;0.65;;;;;;;16.98;41.40;99857.88;5589763;31;32816;-68
2022/05/29 15:10:30;;;;;;;2.37;0.60;;;;;;;16.68;43.51;99846.19;5590353;31;34217;-68
2022/05/29 15:13:59;;;;;;;8.88;1.20;;;;;;;16.62;44.32;99847.91;5590340;31;34450;-67
2022/05/29 15:17:02;;;;;;;4.97;0.65;;;;;;;16.54;46.57;99837.44;5589519;31;33714;-67
2022/05/29 15:27:05;;;;;;;1.33;0.65;;;;;;;15.91;54.46;99836.69;5578618;31;32549;-67
2022/05/29 15:30:14;;;;;;;4.57;1.00;;;;;;;15.16;61.78;99831.03;5589693;31;32762;-67
2022/05/29 15:33:19;;;;;;;1.35;0.77;;;;;;;14.64;64.80;99839.16;5576620;31;32462;-67
2022/05/29 15:36:44;;;;;;;3.20;1.00;;;;;;;13.93;72.43;99846.91;5589682;31;32663;-68
2022/05/29 15:40:07;;;;;;;1.08;0.82;;;;;;;13.66;71.37;99846.00;5589787;31;32419;-68
2022/05/29 15:43:25;;;;;;;1.77;0.90;;;;;;;13.34;73.90;99841.37;5577076;31;33559;-67